Time;durP1;ratioP1;P1;durP2;ratioP2;P2;SDS_P1;SDS_P2;PMS_P1;PMS_P2;Temp;Humidity;BMP_temperature;BMP_pressure;BME280_temperature;BME280_humidity;BME280_pressure;Samples;Min_cycle;Max_cycle;Signal;HPM_P1;HPM_P2
2023/12/02 00:01:53;;;;;;;68.43;8.63;;;18.00;99.90;;;;;;4977017;28;20030;-78
2023/12/02 00:04:20;;;;;;;46.25;6.78;;;17.90;99.90;;;;;;4956749;28;20115;-79
2023/12/02 00:06:49;;;;;;;55.70;8.38;;;17.90;99.90;;;;;;4975788;28;20109;-80
2023/12/02 00:09:18;;;;;;;43.60;8.00;;;17.90;99.90;;;;;;4975470;28;20113;-80
2023/12/02 00:11:48;;;;;;;50.20;6.78;;;17.90;99.90;;;;;;4991526;28;20018;-79
2023/12/02 00:14:14;;;;;;;39.30;6.50;;;17.90;99.90;;;;;;4987720;28;20555;-80
2023/12/02 00:16:41;;;;;;;53.10;7.10;;;17.90;99.90;;;;;;4991346;28;20053;-80
2023/12/02 00:19:10;;;;;;;62.30;7.50;;;17.80;99.90;;;;;;4981669;28;20023;-80
2023/12/02 00:21:45;;;;;;;55.28;6.85;;;17.90;99.90;;;;;;4977943;28;20030;-80
2023/12/02 00:24:28;;;;;;;38.53;6.82;;;17.80;99.90;;;;;;4994802;28;20038;-82
2023/12/02 00:26:54;;;;;;;45.67;6.75;;;17.80;99.90;;;;;;4988926;28;20027;-85
2023/12/02 00:29:21;;;;;;;45.78;6.28;;;17.80;99.90;;;;;;4974109;28;20436;-83
2023/12/02 00:31:48;;;;;;;53.50;6.75;;;17.80;99.90;;;;;;4980608;28;20027;-84
2023/12/02 00:34:22;;;;;;;53.15;6.85;;;17.90;99.90;;;;;;4978730;28;20069;-82
2023/12/02 00:37:02;;;;;;;50.08;7.78;;;17.90;99.90;;;;;;4995676;28;20030;-81
2023/12/02 00:39:34;;;;;;;61.10;8.45;;;17.80;99.90;;;;;;4963808;28;20306;-81
2023/12/02 00:42:02;;;;;;;44.97;6.97;;;17.80;99.90;;;;;;4995741;28;20026;-81
2023/12/02 00:44:29;;;;;;;46.00;5.85;;;17.80;99.90;;;;;;4975667;28;20027;-81
2023/12/02 00:46:56;;;;;;;60.75;6.50;;;17.70;99.90;;;;;;4989550;28;20101;-82
2023/12/02 00:49:23;;;;;;;45.22;7.55;;;17.80;99.90;;;;;;5009709;28;20023;-82
2023/12/02 00:51:55;;;;;;;47.92;7.47;;;17.70;99.90;;;;;;4975978;28;20031;-81
2023/12/02 00:54:21;;;;;;;57.50;7.50;;;17.80;99.90;;;;;;4995061;28;20072;-81
2023/12/02 00:56:48;;;;;;;58.15;7.70;;;17.70;99.90;;;;;;4994313;28;20045;-81
2023/12/02 00:59:15;;;;;;;60.17;6.88;;;17.80;99.90;;;;;;4965213;28;20512;-81
2023/12/02 01:01:44;;;;;;;60.22;8.40;;;17.80;99.90;;;;;;4987930;28;20513;-81
2023/12/02 01:04:12;;;;;;;55.78;8.10;;;17.80;99.90;;;;;;4991127;28;20026;-81
2023/12/02 01:06:38;;;;;;;54.03;7.28;;;17.70;99.90;;;;;;4982136;28;20022;-81
2023/12/02 01:09:07;;;;;;;59.95;6.78;;;17.70;99.90;;;;;;4966292;28;20041;-82
2023/12/02 01:11:34;;;;;;;55.97;6.82;;;17.70;99.90;;;;;;4959568;28;20037;-82
2023/12/02 01:14:01;;;;;;;56.65;6.93;;;17.70;99.90;;;;;;4975406;28;20023;-82
2023/12/02 01:16:28;;;;;;;46.38;6.78;;;17.70;99.90;;;;;;4975621;28;20053;-82
2023/12/02 01:18:55;;;;;;;47.67;7.07;;;17.70;99.90;;;;;;4975376;28;20034;-82
2023/12/02 01:21:21;;;;;;;54.55;8.40;;;17.60;99.90;;;;;;4959316;28;20110;-82
2023/12/02 01:23:47;;;;;;;49.47;6.53;;;17.60;99.90;;;;;;4959470;28;20571;-82
2023/12/02 01:26:14;;;;;;;58.53;7.45;;;17.60;99.90;;;;;;4959303;28;20123;-82
2023/12/02 01:28:40;;;;;;;52.55;6.30;;;17.60;99.90;;;;;;4964224;28;20031;-82
2023/12/02 01:31:09;;;;;;;45.85;7.38;;;17.60;99.90;;;;;;4974657;28;20058;-81
2023/12/02 01:33:35;;;;;;;66.07;6.93;;;17.60;99.90;;;;;;4994768;28;20033;-82
2023/12/02 01:36:02;;;;;;;57.78;7.47;;;17.60;99.90;;;;;;4975026;28;20058;-81
2023/12/02 01:38:28;;;;;;;67.45;6.50;;;17.60;99.90;;;;;;4962635;28;20034;-80
2023/12/02 01:40:54;;;;;;;57.53;6.25;;;17.60;99.90;;;;;;4976416;28;20058;-79
2023/12/02 01:43:25;;;;;;;47.90;7.93;;;17.60;99.90;;;;;;4975072;28;20038;-80
2023/12/02 01:45:52;;;;;;;60.63;7.43;;;17.60;99.90;;;;;;4975019;28;20522;-79
2023/12/02 01:48:26;;;;;;;57.20;7.35;;;17.50;99.90;;;;;;4994292;28;20480;-80
2023/12/02 01:50:53;;;;;;;55.90;7.20;;;17.50;99.90;;;;;;4994330;28;20038;-79
2023/12/02 01:53:20;;;;;;;56.97;7.43;;;17.50;99.90;;;;;;4995594;28;20026;-79
2023/12/02 01:55:47;;;;;;;49.58;5.90;;;17.50;99.90;;;;;;4977944;28;20038;-79
2023/12/02 01:58:13;;;;;;;62.13;7.82;;;17.50;99.90;;;;;;4990791;28;20488;-79
2023/12/02 02:00:39;;;;;;;57.25;7.28;;;17.40;99.90;;;;;;4976033;28;20023;-79
2023/12/02 02:03:06;;;;;;;61.40;6.35;;;17.40;99.90;;;;;;4976045;28;20031;-79
2023/12/02 02:05:33;;;;;;;61.80;7.50;;;17.40;99.90;;;;;;4974705;28;20085;-79
2023/12/02 02:08:02;;;;;;;48.25;6.85;;;17.40;99.90;;;;;;4974700;28;20034;-79
2023/12/02 02:10:29;;;;;;;61.08;6.25;;;17.40;99.90;;;;;;4975751;28;20115;-79
2023/12/02 02:12:55;;;;;;;64.80;7.70;;;17.40;99.90;;;;;;4974690;28;20023;-79
2023/12/02 02:15:21;;;;;;;53.72;6.90;;;17.40;99.90;;;;;;4975634;28;20555;-79
2023/12/02 02:17:48;;;;;;;58.28;7.13;;;17.40;99.90;;;;;;4959189;28;20373;-80
2023/12/02 02:20:14;;;;;;;57.65;6.57;;;17.40;99.90;;;;;;4995046;28;20026;-80
2023/12/02 02:22:41;;;;;;;61.47;6.85;;;17.40;99.90;;;;;;4993978;28;20027;-79
2023/12/02 02:25:07;;;;;;;49.22;6.20;;;17.40;99.90;;;;;;4994857;28;20105;-80
2023/12/02 02:27:34;;;;;;;48.85;6.50;;;17.40;99.90;;;;;;4993709;28;20092;-79
2023/12/02 02:30:00;;;;;;;53.45;6.57;;;17.30;99.90;;;;;;4993632;28;20041;-80
2023/12/02 02:32:27;;;;;;;50.00;7.40;;;17.30;99.90;;;;;;4994843;28;20057;-80
2023/12/02 02:34:53;;;;;;;50.47;6.28;;;17.30;99.90;;;;;;4992231;28;20034;-79
2023/12/02 02:37:20;;;;;;;42.42;5.43;;;17.30;99.90;;;;;;4993460;28;20373;-80
2023/12/02 02:39:47;;;;;;;76.07;7.22;;;17.40;99.90;;;;;;4960784;28;20057;-80
2023/12/02 02:42:14;;;;;;;45.92;5.97;;;17.40;99.90;;;;;;4973678;28;20392;-80
2023/12/02 02:44:40;;;;;;;55.38;7.82;;;17.40;99.90;;;;;;4989083;28;20026;-79
2023/12/02 02:47:07;;;;;;;74.90;6.93;;;17.40;99.90;;;;;;4977162;28;20433;-79
2023/12/02 02:49:33;;;;;;;69.18;6.90;;;17.40;99.90;;;;;;4984498;28;20393;-80
2023/12/02 02:52:00;;;;;;;69.80;7.13;;;17.40;99.90;;;;;;4973800;28;20031;-80
2023/12/02 02:54:26;;;;;;;56.47;6.80;;;17.30;99.90;;;;;;4973865;28;20035;-79
2023/12/02 02:56:54;;;;;;;65.40;7.82;;;17.30;99.90;;;;;;4974703;28;20045;-80
2023/12/02 02:59:21;;;;;;;66.45;7.03;;;17.30;99.90;;;;;;4973799;28;20117;-79
2023/12/02 03:01:48;;;;;;;51.63;6.32;;;17.30;99.90;;;;;;4973728;28;20115;-80
2023/12/02 03:04:15;;;;;;;52.25;6.45;;;17.30;99.90;;;;;;4973544;28;20031;-79
2023/12/02 03:06:44;;;;;;;47.92;5.88;;;17.40;99.90;;;;;;4974773;28;20072;-79
2023/12/02 03:09:11;;;;;;;50.03;6.63;;;17.40;99.90;;;;;;4973251;28;20042;-79
2023/12/02 03:11:38;;;;;;;69.50;7.10;;;17.30;99.90;;;;;;4974800;28;20495;-79
2023/12/02 03:14:05;;;;;;;57.42;7.18;;;17.30;99.90;;;;;;4974710;28;20057;-79
2023/12/02 03:16:31;;;;;;;49.70;7.07;;;17.30;99.90;;;;;;4974575;28;20026;-79
2023/12/02 03:18:58;;;;;;;70.75;7.03;;;17.30;99.90;;;;;;4973646;28;20027;-78
2023/12/02 03:21:24;;;;;;;62.95;6.85;;;17.30;99.90;;;;;;4992643;28;20022;-80
2023/12/02 03:23:50;;;;;;;54.50;6.85;;;17.40;99.90;;;;;;4993629;28;20026;-80
2023/12/02 03:26:17;;;;;;;50.60;6.75;;;17.30;99.90;;;;;;4976406;28;20030;-79
2023/12/02 03:28:43;;;;;;;56.75;5.70;;;17.30;99.90;;;;;;4986524;28;20030;-79
2023/12/02 03:31:09;;;;;;;48.80;6.05;;;17.30;99.90;;;;;;4973118;28;20031;-79
2023/12/02 03:33:36;;;;;;;47.95;6.50;;;17.30;99.90;;;;;;4986664;28;20027;-79
2023/12/02 03:36:02;;;;;;;71.47;8.50;;;17.30;99.90;;;;;;4956895;28;20035;-80
2023/12/02 03:38:29;;;;;;;57.67;6.47;;;17.30;99.90;;;;;;4979503;28;20053;-79
2023/12/02 03:40:55;;;;;;;54.20;6.05;;;17.30;99.90;;;;;;4976280;28;20388;-79
2023/12/02 03:43:22;;;;;;;58.70;7.10;;;17.30;99.90;;;;;;4991225;28;20030;-80
2023/12/02 03:45:48;;;;;;;54.67;7.10;;;17.30;99.90;;;;;;4956851;28;20502;-79
2023/12/02 03:48:14;;;;;;;43.28;6.25;;;17.30;99.90;;;;;;4977187;28;20057;-79
2023/12/02 03:50:40;;;;;;;57.75;7.10;;;17.40;99.90;;;;;;4992320;28;20041;-79
2023/12/02 03:53:07;;;;;;;54.35;7.47;;;17.40;99.90;;;;;;4993123;28;20023;-80
2023/12/02 03:55:33;;;;;;;58.83;7.30;;;17.40;99.90;;;;;;4993400;28;20034;-79
2023/12/02 03:58:00;;;;;;;52.15;7.10;;;17.40;99.90;;;;;;4992162;28;20043;-79
2023/12/02 04:00:27;;;;;;;41.95;7.53;;;17.40;99.90;;;;;;4972827;28;20394;-79
2023/12/02 04:02:53;;;;;;;44.58;7.22;;;17.50;99.90;;;;;;4972789;28;20062;-80
2023/12/02 04:05:19;;;;;;;54.83;7.43;;;17.50;99.90;;;;;;4972677;28;20404;-80
2023/12/02 04:07:45;;;;;;;45.47;7.97;;;17.50;99.90;;;;;;4956785;28;20093;-80
2023/12/02 04:10:12;;;;;;;51.80;8.20;;;17.50;99.90;;;;;;4986863;28;20117;-80
2023/12/02 04:12:38;;;;;;;54.08;9.55;;;17.50;99.90;;;;;;4974027;28;20079;-80
2023/12/02 04:15:06;;;;;;;50.50;8.25;;;17.50;99.90;;;;;;4974023;28;20026;-80
2023/12/02 04:17:32;;;;;;;55.03;9.15;;;17.60;99.90;;;;;;4956697;28;20027;-80
2023/12/02 04:19:59;;;;;;;41.63;8.55;;;17.60;99.90;;;;;;4956539;28;20031;-80
2023/12/02 04:22:25;;;;;;;53.95;8.52;;;17.60;99.90;;;;;;4973952;28;20500;-79
2023/12/02 04:24:52;;;;;;;44.78;8.60;;;17.60;99.90;;;;;;4973887;28;20030;-79
2023/12/02 04:27:18;;;;;;;49.17;8.10;;;17.60;99.90;;;;;;4973813;28;20034;-79
2023/12/02 04:29:44;;;;;;;49.78;8.23;;;17.60;99.90;;;;;;4972453;28;20077;-79
2023/12/02 04:32:11;;;;;;;50.03;7.75;;;17.50;99.90;;;;;;4972656;28;20038;-79
2023/12/02 04:34:38;;;;;;;53.85;7.82;;;17.50;99.90;;;;;;4973868;28;20106;-79
2023/12/02 04:37:05;;;;;;;44.65;8.65;;;17.50;99.90;;;;;;4973684;28;20102;-78
2023/12/02 04:39:32;;;;;;;47.40;8.77;;;17.60;99.90;;;;;;4973675;28;20019;-79
2023/12/02 04:41:58;;;;;;;51.45;8.27;;;17.60;99.90;;;;;;4973786;28;20492;-79
2023/12/02 04:44:25;;;;;;;39.42;8.07;;;17.60;99.90;;;;;;4973721;28;20027;-79
2023/12/02 04:46:51;;;;;;;42.40;8.10;;;17.50;99.90;;;;;;4973657;28;20527;-80
2023/12/02 04:49:18;;;;;;;48.85;8.15;;;17.50;99.90;;;;;;4972362;28;20027;-79
2023/12/02 04:51:44;;;;;;;52.55;8.05;;;17.50;99.90;;;;;;4972447;28;20035;-79
2023/12/02 04:54:10;;;;;;;61.35;8.63;;;17.50;99.90;;;;;;4973655;28;20476;-79
2023/12/02 04:56:37;;;;;;;55.63;9.18;;;17.50;99.90;;;;;;4973471;28;20037;-79
2023/12/02 04:59:03;;;;;;;55.28;9.40;;;17.50;99.90;;;;;;4973412;28;20492;-79
2023/12/02 05:01:29;;;;;;;56.17;9.10;;;17.40;99.90;;;;;;4956284;28;20038;-79
2023/12/02 05:03:55;;;;;;;47.45;8.57;;;17.50;99.90;;;;;;4973551;28;20019;-79
2023/12/02 05:06:22;;;;;;;45.85;8.93;;;17.40;99.90;;;;;;4959353;28;20550;-79
2023/12/02 05:08:48;;;;;;;49.05;8.52;;;17.40;99.90;;;;;;4967835;28;20042;-79
2023/12/02 05:11:20;;;;;;;33.95;7.45;;;17.40;99.90;;;;;;4977841;28;20173;-79
2023/12/02 05:13:47;;;;;;;44.10;8.18;;;17.30;99.90;;;;;;4975168;28;20038;-79
2023/12/02 05:16:14;;;;;;;53.50;8.70;;;17.30;99.90;;;;;;4958558;28;20033;-79
2023/12/02 05:18:41;;;;;;;42.97;7.75;;;17.30;99.90;;;;;;4979471;28;20037;-78
2023/12/02 05:21:12;;;;;;;63.08;8.75;;;17.30;99.90;;;;;;4993813;28;20048;-80
2023/12/02 05:23:41;;;;;;;48.95;8.07;;;17.30;99.90;;;;;;4977507;28;20031;-79
2023/12/02 05:26:08;;;;;;;50.70;8.27;;;17.30;99.90;;;;;;4977476;28;20042;-79
2023/12/02 05:28:40;;;;;;;56.83;9.52;;;17.30;99.90;;;;;;4989475;28;20117;-79
2023/12/02 05:31:07;;;;;;;52.67;8.23;;;17.30;99.90;;;;;;4942233;28;20042;-79
2023/12/02 05:33:39;;;;;;;41.53;8.48;;;17.30;99.90;;;;;;4942174;28;20106;-80
2023/12/02 05:36:08;;;;;;;41.30;8.32;;;17.20;99.90;;;;;;4974307;28;20031;-79
2023/12/02 05:38:34;;;;;;;54.45;8.23;;;17.30;99.90;;;;;;4945015;28;20113;-79
2023/12/02 05:41:03;;;;;;;50.42;7.82;;;17.30;99.90;;;;;;4992123;28;20057;-79
2023/12/02 05:43:31;;;;;;;49.95;8.13;;;17.20;99.90;;;;;;4993517;28;20578;-80
2023/12/02 05:45:57;;;;;;;57.30;8.80;;;17.20;99.90;;;;;;4958729;28;20035;-79
2023/12/02 05:48:23;;;;;;;57.45;7.70;;;17.30;99.90;;;;;;4976275;28;20523;-80
2023/12/02 05:50:50;;;;;;;36.78;6.95;;;17.30;99.90;;;;;;4976118;28;20122;-80
2023/12/02 05:53:16;;;;;;;61.33;8.32;;;17.30;99.90;;;;;;4974880;28;20389;-79
2023/12/02 05:55:42;;;;;;;47.97;8.18;;;17.30;99.90;;;;;;4988335;28;20026;-80
2023/12/02 05:58:09;;;;;;;60.15;9.05;;;17.30;99.90;;;;;;4993099;28;20126;-80
2023/12/02 06:00:35;;;;;;;47.63;8.05;;;17.40;99.90;;;;;;4974933;28;20034;-80
2023/12/02 06:03:03;;;;;;;50.70;9.05;;;17.40;99.90;;;;;;4976068;28;20130;-80
2023/12/02 06:05:29;;;;;;;46.83;7.80;;;17.40;99.90;;;;;;4988986;28;20546;-79
2023/12/02 06:07:55;;;;;;;47.75;8.85;;;17.40;99.90;;;;;;4993662;28;20418;-80
2023/12/02 06:10:22;;;;;;;61.35;8.00;;;17.40;99.90;;;;;;4975944;28;20039;-80
2023/12/02 06:12:48;;;;;;;50.75;8.20;;;17.40;99.90;;;;;;4974564;28;20428;-79
2023/12/02 06:15:21;;;;;;;39.47;8.18;;;17.50;99.90;;;;;;4957948;28;20034;-79
2023/12/02 06:17:48;;;;;;;45.30;7.80;;;17.50;99.90;;;;;;4987428;28;20069;-79
2023/12/02 06:20:14;;;;;;;48.47;7.72;;;17.50;99.90;;;;;;4976924;28;20030;-80
2023/12/02 06:22:41;;;;;;;60.53;9.75;;;17.50;99.90;;;;;;4958305;28;20392;-79
2023/12/02 06:25:08;;;;;;;38.20;8.32;;;17.60;99.90;;;;;;4958352;28;20026;-80
2023/12/02 06:27:34;;;;;;;52.75;8.70;;;17.60;99.90;;;;;;4974153;28;20034;-80
2023/12/02 06:30:01;;;;;;;40.58;8.15;;;17.60;99.90;;;;;;4958050;28;20034;-79
2023/12/02 06:32:27;;;;;;;46.80;8.80;;;17.60;99.90;;;;;;4975474;28;20065;-79
2023/12/02 06:34:54;;;;;;;45.72;8.73;;;17.60;99.90;;;;;;4974223;28;20057;-79
2023/12/02 06:37:20;;;;;;;53.47;8.57;;;17.60;99.90;;;;;;4965629;28;20026;-79
2023/12/02 06:39:47;;;;;;;54.20;8.95;;;17.60;99.90;;;;;;4980631;28;20055;-79
2023/12/02 06:42:13;;;;;;;54.53;10.38;;;17.60;99.90;;;;;;4974125;28;20150;-79
2023/12/02 06:44:42;;;;;;;45.22;8.55;;;17.70;99.90;;;;;;4973912;28;20023;-79
2023/12/02 06:47:09;;;;;;;38.22;7.72;;;17.70;99.90;;;;;;4962972;28;20030;-79
2023/12/02 06:49:35;;;;;;;48.20;8.30;;;17.70;99.90;;;;;;4981946;28;20520;-79
2023/12/02 06:52:02;;;;;;;46.92;8.75;;;17.70;99.90;;;;;;4973797;28;20022;-80
2023/12/02 06:54:28;;;;;;;49.85;8.20;;;17.80;99.90;;;;;;4973772;28;20031;-80
2023/12/02 06:56:55;;;;;;;58.63;8.70;;;17.80;99.90;;;;;;4975929;28;20027;-80
2023/12/02 06:59:21;;;;;;;37.90;7.85;;;17.70;99.90;;;;;;4967872;28;20540;-80
2023/12/02 07:01:48;;;;;;;54.10;9.80;;;17.80;99.90;;;;;;4973731;28;20499;-80
2023/12/02 07:04:14;;;;;;;38.25;7.72;;;17.80;99.90;;;;;;4973626;28;20436;-80
2023/12/02 07:06:41;;;;;;;46.42;9.55;;;17.80;99.90;;;;;;4974719;28;20109;-80
2023/12/02 07:09:08;;;;;;;48.25;8.98;;;17.80;99.90;;;;;;4973434;28;20065;-80
2023/12/02 07:11:35;;;;;;;57.70;8.88;;;17.80;99.90;;;;;;4976177;28;20229;-80
2023/12/02 07:14:02;;;;;;;55.53;8.75;;;17.90;99.90;;;;;;4992910;28;20023;-80
2023/12/02 07:16:29;;;;;;;45.70;10.15;;;18.00;99.90;;;;;;4992820;28;20408;-80
2023/12/02 07:18:56;;;;;;;43.83;9.98;;;17.90;99.90;;;;;;4984071;28;20023;-80
2023/12/02 07:21:22;;;;;;;48.03;8.90;;;18.00;99.90;;;;;;4975423;28;20030;-79
2023/12/02 07:23:49;;;;;;;66.20;9.18;;;18.00;99.90;;;;;;4992714;28;20081;-80
2023/12/02 07:26:16;;;;;;;48.20;9.00;;;18.00;99.90;;;;;;4992715;28;20042;-80
2023/12/02 07:28:42;;;;;;;50.42;10.57;;;18.00;99.90;;;;;;4989756;28;20022;-79
2023/12/02 07:31:16;;;;;;;52.20;9.05;;;18.00;99.90;;;;;;4973017;28;20034;-80
2023/12/02 07:33:43;;;;;;;55.63;9.18;;;18.10;99.90;;;;;;4973320;28;20026;-79
2023/12/02 07:36:10;;;;;;;55.75;10.57;;;18.10;99.90;;;;;;4974296;28;20026;-80
2023/12/02 07:38:38;;;;;;;46.33;9.93;;;18.10;99.90;;;;;;4975632;28;20531;-79
2023/12/02 07:41:05;;;;;;;52.58;9.00;;;18.20;99.90;;;;;;4976369;28;20022;-80
2023/12/02 07:43:32;;;;;;;59.53;10.52;;;18.20;99.90;;;;;;4969564;28;20404;-80
2023/12/02 07:45:58;;;;;;;50.58;8.90;;;18.30;99.90;;;;;;4974190;28;20034;-80
2023/12/02 07:48:24;;;;;;;49.05;9.65;;;18.30;99.90;;;;;;4974820;28;20031;-79
2023/12/02 07:50:51;;;;;;;59.88;10.70;;;18.40;99.90;;;;;;4976077;28;20034;-80
2023/12/02 07:53:17;;;;;;;58.80;10.18;;;18.40;99.90;;;;;;4992839;28;20026;-80
2023/12/02 07:55:44;;;;;;;50.47;9.43;;;18.50;99.90;;;;;;4992382;28;20100;-80
2023/12/02 07:58:11;;;;;;;49.40;9.20;;;18.50;99.90;;;;;;4991888;28;20073;-79
2023/12/02 08:00:37;;;;;;;62.78;10.45;;;18.60;99.90;;;;;;4972776;28;20031;-80
2023/12/02 08:03:04;;;;;;;49.90;10.00;;;18.60;99.90;;;;;;4974286;28;20034;-80
2023/12/02 08:05:30;;;;;;;63.00;10.15;;;18.70;99.90;;;;;;4975218;28;20038;-80
2023/12/02 08:07:56;;;;;;;73.82;11.23;;;18.80;99.90;;;;;;4973970;28;20137;-80
2023/12/02 08:10:23;;;;;;;55.25;10.98;;;18.80;99.90;;;;;;4972529;28;20121;-80
2023/12/02 08:12:49;;;;;;;54.28;10.15;;;18.80;99.90;;;;;;4972712;28;20115;-80
2023/12/02 08:15:16;;;;;;;55.03;9.68;;;18.90;99.90;;;;;;4974567;28;20034;-80
2023/12/02 08:17:46;;;;;;;46.17;9.93;;;19.00;99.90;;;;;;4992083;28;20395;-80
2023/12/02 08:20:13;;;;;;;77.10;11.88;;;19.10;99.90;;;;;;4977322;28;20030;-80
2023/12/02 08:22:39;;;;;;;71.50;11.75;;;19.10;99.90;;;;;;4972831;28;20031;-80
2023/12/02 08:25:08;;;;;;;51.88;11.20;;;19.20;99.90;;;;;;4974292;28;20080;-84
2023/12/02 08:27:35;;;;;;;54.92;11.05;;;19.20;99.90;;;;;;4959009;28;20034;-85
2023/12/02 08:30:03;;;;;;;57.60;12.32;;;19.30;99.90;;;;;;4966584;28;20042;-84
2023/12/02 08:32:31;;;;;;;59.38;11.73;;;19.30;99.90;;;;;;4972574;28;20485;-84
2023/12/02 08:34:58;;;;;;;56.50;11.77;;;19.40;99.90;;;;;;4972714;28;20117;-82
2023/12/02 08:37:25;;;;;;;50.28;11.77;;;19.50;99.90;;;;;;4972772;28;20031;-83
2023/12/02 08:39:51;;;;;;;58.33;11.68;;;19.50;99.90;;;;;;4959399;28;20027;-83
2023/12/02 08:42:18;;;;;;;53.03;12.80;;;19.50;99.90;;;;;;4960483;28;20053;-85
2023/12/02 08:44:46;;;;;;;56.55;11.48;;;19.60;99.90;;;;;;4976457;28;20568;-85
2023/12/02 08:47:13;;;;;;;43.50;11.02;;;19.60;99.90;;;;;;4985603;28;20039;-85
2023/12/02 08:49:40;;;;;;;51.72;12.23;;;19.50;99.90;;;;;;4986012;28;20037;-83
2023/12/02 08:52:07;;;;;;;61.22;11.98;;;19.40;99.90;;;;;;4960311;28;20066;-83
2023/12/02 08:54:34;;;;;;;60.17;12.43;;;19.40;99.90;;;;;;4976247;28;20031;-83
2023/12/02 08:57:00;;;;;;;59.53;10.77;;;19.30;99.90;;;;;;4978669;28;20070;-83
2023/12/02 08:59:27;;;;;;;54.78;11.30;;;19.40;99.90;;;;;;4992193;28;20031;-83
2023/12/02 09:01:53;;;;;;;60.63;11.88;;;19.50;99.90;;;;;;4960714;28;20122;-83
2023/12/02 09:04:20;;;;;;;47.25;11.20;;;19.50;99.90;;;;;;4975854;28;20030;-83
2023/12/02 09:06:46;;;;;;;53.35;11.20;;;19.60;99.90;;;;;;4959715;28;20058;-83
2023/12/02 09:09:13;;;;;;;52.65;11.38;;;19.60;99.90;;;;;;4962391;28;20073;-83
2023/12/02 09:11:41;;;;;;;57.97;12.20;;;19.60;99.90;;;;;;4961153;28;20073;-83
2023/12/02 09:14:08;;;;;;;53.70;12.73;;;19.70;99.90;;;;;;4993225;28;20101;-83
2023/12/02 09:16:34;;;;;;;56.17;11.65;;;19.70;99.90;;;;;;4994908;28;20034;-84
2023/12/02 09:19:06;;;;;;;65.18;13.07;;;19.70;99.90;;;;;;4975656;28;20066;-84
2023/12/02 09:21:41;;;;;;;64.05;11.82;;;19.60;99.90;;;;;;4959777;28;20031;-83
2023/12/02 09:24:35;;;;;;;58.10;12.48;;;19.60;99.90;;;;;;4977554;28;20062;-84
2023/12/02 09:27:07;;;;;;;44.30;12.23;;;19.70;99.90;;;;;;4970803;28;20122;-83
2023/12/02 09:29:41;;;;;;;56.75;11.82;;;19.80;99.90;;;;;;4995050;28;20042;-84
2023/12/02 09:32:39;;;;;;;63.15;13.35;;;19.90;99.90;;;;;;4977390;28;20039;-83
2023/12/02 09:35:06;;;;;;;43.67;12.95;;;19.90;99.90;;;;;;4959575;28;20122;-84
2023/12/02 09:37:51;;;;;;;51.88;12.85;;;19.90;99.90;;;;;;4959174;28;20031;-83
2023/12/02 09:40:20;;;;;;;55.22;12.55;;;20.00;99.90;;;;;;4977632;28;20034;-84
2023/12/02 09:43:04;;;;;;;58.42;13.20;;;20.00;99.90;;;;;;4965609;28;20030;-84
2023/12/02 09:45:46;;;;;;;44.10;13.23;;;20.00;99.90;;;;;;4996760;28;20018;-84
2023/12/02 09:48:23;;;;;;;61.65;13.68;;;20.00;99.90;;;;;;4994433;28;20555;-84
2023/12/02 09:51:02;;;;;;;49.35;12.88;;;20.00;99.90;;;;;;4969293;28;20081;-83
2023/12/02 09:53:56;;;;;;;48.42;13.07;;;20.00;99.90;;;;;;4975091;28;20029;-83
2023/12/02 09:56:32;;;;;;;48.13;13.27;;;20.20;99.90;;;;;;4974054;28;20086;-83
2023/12/02 09:59:40;;;;;;;45.72;13.45;;;20.40;99.90;;;;;;4975159;28;20397;-82
2023/12/02 10:02:40;;;;;;;61.10;13.35;;;20.50;99.90;;;;;;4972303;28;20443;-82
2023/12/02 10:05:14;;;;;;;45.92;12.90;;;20.40;99.90;;;;;;4991064;28;20023;-85
2023/12/02 10:07:53;;;;;;;42.90;13.50;;;20.50;99.90;;;;;;4985124;28;20026;-83
2023/12/02 10:10:25;;;;;;;64.47;14.40;;;20.50;99.90;;;;;;4987156;28;20365;-83
2023/12/02 10:13:14;;;;;;;63.15;14.73;;;20.30;99.90;;;;;;4986866;28;20503;-84
2023/12/02 10:15:51;;;;;;;53.83;13.05;;;20.30;99.90;;;;;;4985519;28;20022;-85
2023/12/02 10:18:22;;;;;;;61.55;13.85;;;20.40;99.90;;;;;;4976145;28;20030;-85
2023/12/02 10:21:03;;;;;;;46.17;13.77;;;20.50;99.90;;;;;;4993129;28;20088;-84
2023/12/02 10:24:04;;;;;;;50.92;13.88;;;20.50;99.90;;;;;;4993816;28;20045;-82
2023/12/02 10:26:54;;;;;;;40.03;13.90;;;20.60;99.90;;;;;;4984250;28;20042;-84
2023/12/02 10:29:40;;;;;;;53.42;13.93;;;20.50;99.90;;;;;;4964172;28;20058;-83
2023/12/02 10:32:24;;;;;;;58.33;17.40;;;20.60;99.90;;;;;;4993718;28;20527;-83
2023/12/02 10:34:51;;;;;;;64.40;17.38;;;20.50;99.90;;;;;;4974364;28;20026;-83
2023/12/02 10:37:22;;;;;;;58.97;20.55;;;20.50;99.90;;;;;;4989808;28;20018;-84
2023/12/02 10:39:51;;;;;;;53.20;14.68;;;20.50;99.90;;;;;;4970818;28;20050;-84
2023/12/02 10:42:21;;;;;;;51.03;13.68;;;20.30;99.90;;;;;;4961468;28;20031;-84
2023/12/02 10:44:55;;;;;;;64.30;19.58;;;20.20;99.90;;;;;;4972414;28;20445;-84
2023/12/02 10:48:05;;;;;;;45.35;15.40;;;20.30;99.90;;;;;;4974527;28;20081;-75
2023/12/02 10:50:34;;;;;;;69.47;14.88;;;20.30;99.90;;;;;;4962258;28;20042;-92
2023/12/02 10:53:03;;;;;;;45.58;14.60;;;20.30;99.90;;;;;;4966783;28;20022;-92
2023/12/02 10:55:31;;;;;;;51.08;14.07;;;20.30;99.90;;;;;;4984994;28;20088;-93
2023/12/02 10:58:10;;;;;;;49.08;14.55;;;20.30;99.90;;;;;;4958528;28;20078;-91
2023/12/02 11:01:06;;;;;;;44.30;12.35;;;20.30;99.90;;;;;;4959648;28;20496;-92
2023/12/02 11:03:56;;;;;;;51.25;12.32;;;20.30;99.90;;;;;;4960729;28;20117;-91
2023/12/02 11:06:40;;;;;;;55.42;13.57;;;20.20;99.90;;;;;;4974063;28;20186;-91
2023/12/02 11:09:37;;;;;;;69.25;12.60;;;20.30;99.90;;;;;;4977745;28;20026;-92
2023/12/02 11:12:32;;;;;;;48.08;12.00;;;20.40;99.90;;;;;;4972664;28;20034;-92
2023/12/02 11:15:09;;;;;;;48.85;12.88;;;20.40;99.90;;;;;;4962956;28;20034;-91
2023/12/02 11:17:58;;;;;;;60.70;13.90;;;20.40;99.90;;;;;;4968248;28;20065;-92
2023/12/02 11:20:30;;;;;;;54.55;12.40;;;20.40;99.90;;;;;;4959175;28;20488;-92
2023/12/02 11:23:14;;;;;;;43.63;13.07;;;20.50;99.90;;;;;;4960299;28;20031;-92
2023/12/02 11:26:23;;;;;;;60.08;17.17;;;20.40;99.90;;;;;;4979508;28;20030;-93
2023/12/02 11:29:31;;;;;;;55.30;13.25;;;20.40;99.90;;;;;;4994392;28;20045;-91
2023/12/02 11:32:27;;;;;;;54.55;13.48;;;20.50;99.90;;;;;;4978061;28;20038;-91
2023/12/02 11:35:16;;;;;;;54.58;13.82;;;20.50;99.90;;;;;;4994457;28;20050;-91
2023/12/02 11:38:10;;;;;;;57.28;14.25;;;20.60;99.90;;;;;;4978280;28;20030;-90
2023/12/02 11:41:10;;;;;;;42.95;14.93;;;20.90;99.90;;;;;;4977739;28;20060;-91
2023/12/02 11:43:59;;;;;;;56.83;14.20;;;21.10;99.90;;;;;;4974091;28;20030;-91
2023/12/02 11:50:47;;;;;;;58.05;15.60;;;21.00;99.90;;;;;;4985826;28;20057;-90
2023/12/02 11:53:32;;;;;;;55.55;17.48;;;21.30;99.90;;;;;;4992504;28;20031;-88
2023/12/02 11:56:11;;;;;;;;;;;21.40;99.90;;;;;;4978838;28;20026;-88
2023/12/02 11:58:57;;;;;;;45.30;14.25;;;21.40;99.90;;;;;;4977823;28;19917;-87
2023/12/02 12:01:48;;;;;;;53.53;16.23;;;21.40;99.90;;;;;;4992741;28;20034;-88
2023/12/02 12:05:02;;;;;;;55.95;15.43;;;21.50;99.90;;;;;;4978125;28;20048;-86
2023/12/02 12:07:41;;;;;;;44.80;14.43;;;21.30;99.90;;;;;;4967539;28;20026;-89
2023/12/02 12:10:14;;;;;;;48.72;15.90;;;21.00;99.90;;;;;;4995747;28;20086;-90
2023/12/02 12:12:45;;;;;;;49.38;15.00;;;21.00;99.90;;;;;;4967672;28;20058;-89
2023/12/02 12:15:11;;;;;;;41.72;13.82;;;20.90;99.90;;;;;;4977480;28;20023;-86
2023/12/02 12:17:41;;;;;;;49.85;13.98;;;20.90;99.90;;;;;;4979325;28;20392;-86
2023/12/02 12:20:21;;;;;;;38.42;16.00;;;20.70;99.90;;;;;;4968042;28;20023;-89
2023/12/02 12:22:47;;;;;;;62.30;16.02;;;20.70;99.90;;;;;;4984844;28;20026;-90
2023/12/02 12:25:14;;;;;;;61.28;16.15;;;20.50;99.90;;;;;;4962163;28;20030;-90
2023/12/02 12:27:44;;;;;;;42.67;15.82;;;20.50;99.90;;;;;;4977797;28;20027;-93
2023/12/02 12:30:11;;;;;;;52.25;17.25;;;20.40;99.90;;;;;;4969817;28;20031;-90
2023/12/02 12:32:39;;;;;;;54.03;15.18;;;20.40;99.90;;;;;;4966029;28;20074;-93
2023/12/02 12:35:14;;;;;;;65.60;17.48;;;20.30;99.90;;;;;;5028551;23;20073;-91
2023/12/02 12:37:44;;;;;;;42.78;13.73;;;20.30;99.90;;;;;;5001782;28;20057;-91
2023/12/02 12:40:13;;;;;;;60.42;15.23;;;20.20;99.90;;;;;;4985822;28;20034;-92
2023/12/02 12:42:50;;;;;;;42.80;11.93;;;20.20;99.90;;;;;;5007218;28;20121;-91
2023/12/02 12:45:17;;;;;;;50.20;12.20;;;20.20;99.90;;;;;;4986208;28;20169;-92
2023/12/02 12:47:45;;;;;;;51.85;11.52;;;20.10;99.90;;;;;;4982326;28;20506;-92
2023/12/02 12:50:12;;;;;;;42.72;11.43;;;20.10;99.90;;;;;;4998221;28;20042;-91
2023/12/02 12:52:50;;;;;;;48.55;12.68;;;20.00;99.90;;;;;;4983122;28;20027;-89
2023/12/02 12:55:24;;;;;;;55.40;12.85;;;19.90;99.90;;;;;;4981743;28;20078;-92